Sharon, California
Current Conditions -  °F | °C
As of 6:53 PM on Friday 21 Nov 2014 (Local Time) from KMAE Reporting Station
Clear Clear  
Wind Chill: 50°   Ceiling: Unl
Heat Index: 50°   Visibility: 7mi
Dew Point: 45°   Wind: 5mph
Humidity: 83%   Direction: 90°E
Pressure: 30.15"   Gusts: NA
Location:  37.1043°N, 120.246°W
Report Text: KMAE 220253Z AUTO 09004KT 7SM CLR 10/07 A3015 RMK AO2 SLP210 T01000072 51010
Loading
Personal Weather Stations






























Interactive Weather Map New forecast layout! Learn more

10-Day Weather Forecast

Advertisements
Track Severe Weather on mobile